createdAt,value
2018-09-04T00:01:58.165Z,27.87
2018-09-04T00:04:03.859Z,31.33
2018-09-04T00:06:08.298Z,35.13
2018-09-04T00:08:13.238Z,32.17
2018-09-04T00:10:17.456Z,31.27
2018-09-04T00:12:22.467Z,34.27
2018-09-04T00:14:26.414Z,36.13
2018-09-04T00:16:30.601Z,29.23
2018-09-04T00:18:34.613Z,33.60
2018-09-04T00:20:38.496Z,34.07
2018-09-04T00:22:42.705Z,34.30
2018-09-04T00:24:48.144Z,32.10
2018-09-04T00:26:52.056Z,33.83
2018-09-04T00:28:56.061Z,34.07
2018-09-04T00:31:01.195Z,35.90
2018-09-04T00:33:05.262Z,35.30
2018-09-04T00:35:11.567Z,35.93
2018-09-04T00:37:15.468Z,37.63
2018-09-04T00:39:19.349Z,33.03
2018-09-04T00:41:23.504Z,33.83
2018-09-04T00:43:27.377Z,36.43
2018-09-04T00:45:31.250Z,35.10
2018-09-04T00:47:36.024Z,32.87
2018-09-04T00:49:39.941Z,36.47
2018-09-04T00:51:43.853Z,34.00
2018-09-04T00:53:47.768Z,33.23
2018-09-04T00:55:51.637Z,33.73
2018-09-04T00:57:55.672Z,33.77
2018-09-04T00:59:59.569Z,35.07
2018-09-04T01:02:03.544Z,35.50
2018-09-04T01:04:07.511Z,35.47
2018-09-04T01:06:12.797Z,33.20
2018-09-04T01:08:16.679Z,37.20
2018-09-04T01:10:22.441Z,36.50
2018-09-04T01:12:26.801Z,35.20
2018-09-04T01:14:30.712Z,36.77
2018-09-04T01:16:40.821Z,37.90
2018-09-04T01:18:44.799Z,33.07
2018-09-04T01:20:49.427Z,35.47
2018-09-04T01:22:53.266Z,35.80
2018-09-04T01:24:59.193Z,37.33
2018-09-04T01:27:03.047Z,32.60
2018-09-04T01:29:07.660Z,36.37
2018-09-04T01:31:13.110Z,37.40
2018-09-04T01:33:17.569Z,39.70
2018-09-04T01:35:21.514Z,39.47
2018-09-04T01:37:25.717Z,37.60
2018-09-04T01:39:29.716Z,39.07
2018-09-04T01:41:33.629Z,39.60
2018-09-04T01:43:38.349Z,39.27
2018-09-04T01:45:43.162Z,38.63
2018-09-04T01:47:47.997Z,36.93
2018-09-04T01:49:52.551Z,37.90
2018-09-04T01:51:56.620Z,37.07
2018-09-04T01:54:03.721Z,39.93
2018-09-04T01:56:08.542Z,37.07
2018-09-04T01:58:12.749Z,35.47
2018-09-04T02:00:17.524Z,33.83
2018-09-04T02:02:22.745Z,30.43
2018-09-04T02:04:26.696Z,30.27
2018-09-04T02:06:30.584Z,29.87
2018-09-04T02:08:34.809Z,34.20
2018-09-04T02:10:38.832Z,33.67
2018-09-04T02:12:42.798Z,36.23
2018-09-04T02:14:48.178Z,36.60
2018-09-04T02:16:52.244Z,33.10
2018-09-04T02:18:56.341Z,31.83
2018-09-04T02:21:04.092Z,34.20
2018-09-04T02:23:09.041Z,33.10
2018-09-04T02:25:12.949Z,30.97
2018-09-04T02:27:21.799Z,35.23
2018-09-04T02:29:25.669Z,35.53
2018-09-04T02:31:31.090Z,32.00
2018-09-04T02:33:35.568Z,35.27
2018-09-04T02:35:43.810Z,32.10
2018-09-04T02:37:49.781Z,32.40
2018-09-04T02:39:58.124Z,36.60
2018-09-04T02:42:02.569Z,37.10
2018-09-04T02:44:08.116Z,34.57
2018-09-04T02:46:13.719Z,36.23
2018-09-04T02:48:21.287Z,38.53
2018-09-04T02:50:28.874Z,35.20
2018-09-04T02:52:33.860Z,39.17
2018-09-04T02:54:39.277Z,36.87
2018-09-04T02:56:44.633Z,40.53
2018-09-04T02:58:50.553Z,38.57
2018-09-04T03:00:54.541Z,36.57
2018-09-04T03:02:59.218Z,40.10
2018-09-04T03:05:03.606Z,37.70
2018-09-04T03:07:09.473Z,38.27
2018-09-04T03:09:14.717Z,35.53
2018-09-04T03:11:20.952Z,39.60
2018-09-04T03:13:25.806Z,37.73
2018-09-04T03:15:31.287Z,39.03
2018-09-04T03:17:35.549Z,36.93
2018-09-04T03:19:40.672Z,35.70
2018-09-04T03:21:45.379Z,38.57
2018-09-04T03:23:50.693Z,42.23
2018-09-04T03:25:56.733Z,41.40
2018-09-04T03:28:01.533Z,39.20
2018-09-04T03:30:06.070Z,47.50
2018-09-04T03:32:11.689Z,44.67
2018-09-04T03:34:15.686Z,45.30
2018-09-04T03:36:20.408Z,44.93
2018-09-04T03:38:24.248Z,51.27
2018-09-04T03:40:30.291Z,46.53
2018-09-04T03:42:34.739Z,46.83
2018-09-04T03:44:41.319Z,48.20
2018-09-04T03:46:47.003Z,53.73
2018-09-04T03:48:52.716Z,47.70
2018-09-04T03:50:56.708Z,49.13
2018-09-04T03:53:00.594Z,50.80
2018-09-04T03:55:04.567Z,51.63
2018-09-04T03:57:08.606Z,50.67
2018-09-04T03:59:12.537Z,50.20
2018-09-04T04:01:16.917Z,52.80
2018-09-04T04:03:20.917Z,49.40
2018-09-04T04:05:24.777Z,47.43
2018-09-04T04:07:32.821Z,51.13
2018-09-04T04:09:36.664Z,51.63
2018-09-04T04:11:41.581Z,46.50
2018-09-04T04:13:45.857Z,49.43
2018-09-04T04:15:49.997Z,48.23
2018-09-04T04:17:54.359Z,55.30
2018-09-04T04:19:59.360Z,51.37
2018-09-04T04:22:03.237Z,52.40
2018-09-04T04:24:07.188Z,54.57
2018-09-04T04:26:11.789Z,49.17
2018-09-04T04:28:15.724Z,51.20
2018-09-04T04:30:22.261Z,51.00
2018-09-04T04:32:27.221Z,48.37
2018-09-04T04:34:31.133Z,50.30
2018-09-04T04:36:35.829Z,51.40
2018-09-04T04:38:40.097Z,51.53
2018-09-04T04:40:43.981Z,50.93
2018-09-04T04:42:47.932Z,51.33
2018-09-04T04:44:51.839Z,53.00
2018-09-04T04:46:55.688Z,54.70
2018-09-04T04:48:59.588Z,52.33
2018-09-04T04:51:03.784Z,51.73
2018-09-04T04:53:07.739Z,51.40
2018-09-04T04:55:11.614Z,51.73
2018-09-04T04:57:15.780Z,55.10
2018-09-04T04:59:19.657Z,51.30
2018-09-04T05:01:25.156Z,55.20
2018-09-04T05:03:29.424Z,52.00
2018-09-04T05:05:33.329Z,55.17
2018-09-04T05:07:37.316Z,53.23
2018-09-04T05:09:45.049Z,54.63
2018-09-04T05:11:49.001Z,48.87
2018-09-04T05:13:52.954Z,54.73
2018-09-04T05:15:56.849Z,51.10
2018-09-04T05:18:00.721Z,55.40
2018-09-04T05:20:04.741Z,55.07
2018-09-04T05:22:08.713Z,53.83
2018-09-04T05:24:19.086Z,56.00
2018-09-04T05:26:24.163Z,50.60
2018-09-04T05:28:28.079Z,50.17
2018-09-04T05:30:32.102Z,49.73
2018-09-04T05:32:42.626Z,46.60
2018-09-04T05:34:46.617Z,47.90
2018-09-04T05:36:50.622Z,43.13
2018-09-04T05:38:54.831Z,45.70
2018-09-04T05:41:00.353Z,42.43
2018-09-04T05:43:06.243Z,41.73
2018-09-04T05:45:11.907Z,44.37
2018-09-04T05:47:15.932Z,40.43
2018-09-04T05:49:29.079Z,39.07
2018-09-04T05:51:34.761Z,37.07
2018-09-04T05:53:38.754Z,39.23
2018-09-04T05:55:43.603Z,37.87
2018-09-04T05:57:47.872Z,39.23
2018-09-04T05:59:51.893Z,40.80
2018-09-04T06:01:56.860Z,41.20
2018-09-04T06:04:01.195Z,41.77
2018-09-04T06:06:08.985Z,38.70
2018-09-04T06:08:14.545Z,41.50
2018-09-04T06:10:18.568Z,37.47
2018-09-04T06:12:27.766Z,41.13
2018-09-04T06:14:32.556Z,37.10
2018-09-04T06:16:36.801Z,39.93
2018-09-04T06:18:41.242Z,37.73
2018-09-04T06:20:48.065Z,35.10
2018-09-04T06:22:54.426Z,36.13
2018-09-04T06:25:00.634Z,39.10
2018-09-04T06:27:04.693Z,37.97
2018-09-04T06:29:08.996Z,38.10
2018-09-04T06:31:13.805Z,39.73
2018-09-04T06:33:18.505Z,38.33
2018-09-04T06:35:22.798Z,38.23
2018-09-04T06:37:26.765Z,42.17
2018-09-04T06:39:31.495Z,36.90
2018-09-04T06:41:36.340Z,40.47
2018-09-04T06:43:40.612Z,45.30
2018-09-04T06:45:44.480Z,42.83
2018-09-04T06:47:59.405Z,52.43
2018-09-04T06:50:04.096Z,53.80
2018-09-04T06:52:08.061Z,53.77
2018-09-04T06:54:12.098Z,50.67
2018-09-04T06:56:16.043Z,52.20
2018-09-04T06:58:20.178Z,54.87
2018-09-04T07:00:25.319Z,51.77
2018-09-04T07:02:29.630Z,56.10
2018-09-04T07:04:33.694Z,53.10
2018-09-04T07:06:37.601Z,53.70
2018-09-04T07:08:42.299Z,49.07
2018-09-04T07:10:46.178Z,54.30
2018-09-04T07:12:51.334Z,51.77
2018-09-04T07:14:56.634Z,51.77
2018-09-04T07:17:00.570Z,49.73
2018-09-04T07:19:04.589Z,51.47
2018-09-04T07:21:09.134Z,46.50
2018-09-04T07:23:14.585Z,50.53
2018-09-04T07:25:19.432Z,50.67
2018-09-04T07:27:23.314Z,50.47
2018-09-04T07:29:27.273Z,49.07
2018-09-04T07:31:33.842Z,48.50
2018-09-04T07:33:39.016Z,48.43
2018-09-04T07:35:44.120Z,42.87
2018-09-04T07:37:49.396Z,43.83
2018-09-04T07:39:54.249Z,42.53
2018-09-04T07:41:58.271Z,46.47
2018-09-04T07:44:02.234Z,42.80
2018-09-04T07:46:07.744Z,43.40
2018-09-04T07:48:12.502Z,40.23
2018-09-04T07:50:19.731Z,41.17
2018-09-04T07:52:25.776Z,38.87
2018-09-04T07:54:29.714Z,39.83
2018-09-04T07:56:33.758Z,43.97
2018-09-04T07:58:40.000Z,39.67
2018-09-04T08:00:43.927Z,36.30
2018-09-04T08:02:47.869Z,37.93
2018-09-04T08:04:53.182Z,34.50
2018-09-04T08:06:57.091Z,34.50
2018-09-04T08:09:02.519Z,29.23
2018-09-04T08:11:07.703Z,34.47
2018-09-04T08:13:11.596Z,33.80
2018-09-04T08:15:16.531Z,29.77
2018-09-04T08:17:20.622Z,26.07
2018-09-04T08:19:24.629Z,23.97
2018-09-04T08:21:30.647Z,24.17
2018-09-04T08:23:36.808Z,25.13
2018-09-04T08:25:44.498Z,21.77
2018-09-04T08:27:49.460Z,17.40
2018-09-04T08:29:54.747Z,23.80
2018-09-04T08:31:58.751Z,23.57
2018-09-04T08:34:02.663Z,24.60
2018-09-04T08:36:06.961Z,23.67
2018-09-04T08:38:11.009Z,23.13
2018-09-04T08:40:17.326Z,21.30
2018-09-04T08:42:24.409Z,21.07
2018-09-04T08:44:28.392Z,20.87
2018-09-04T08:46:32.237Z,20.03
2018-09-04T08:48:37.361Z,16.77
2018-09-04T08:50:41.405Z,16.83
2018-09-04T08:52:46.700Z,15.23
2018-09-04T08:54:52.305Z,13.17
2018-09-04T08:56:56.884Z,17.30
2018-09-04T08:59:00.765Z,18.80
2018-09-04T09:01:05.297Z,16.60
2018-09-04T09:03:09.815Z,15.50
2018-09-04T09:05:13.782Z,16.07
2018-09-04T09:07:18.717Z,15.00
2018-09-04T09:09:22.653Z,14.97
2018-09-04T09:11:28.308Z,13.90
2018-09-04T09:13:32.538Z,12.70
2018-09-04T09:15:36.505Z,13.48
2018-09-04T09:17:41.299Z,12.50
2018-09-04T09:19:45.962Z,10.43
2018-09-04T09:21:49.853Z,12.90
2018-09-04T09:23:53.705Z,11.63
2018-09-04T09:25:59.297Z,11.37
2018-09-04T09:28:06.412Z,10.50
2018-09-04T09:30:14.829Z,10.80
2018-09-04T09:32:18.779Z,10.50
2018-09-04T09:34:23.544Z,10.58
2018-09-04T09:36:27.486Z,10.63
2018-09-04T09:38:33.053Z,10.30
2018-09-04T09:40:37.300Z,12.90
2018-09-04T09:42:42.658Z,12.20
2018-09-04T09:44:48.784Z,12.00
2018-09-04T09:47:04.389Z,10.80
2018-09-04T09:49:09.403Z,11.93
2018-09-04T09:51:18.606Z,13.60
2018-09-04T09:53:22.692Z,11.90
2018-09-04T09:55:28.240Z,15.45
2018-09-04T09:57:37.493Z,13.28
2018-09-04T09:59:43.506Z,12.37
2018-09-04T10:01:53.393Z,12.17
2018-09-04T10:03:59.202Z,12.17
2018-09-04T10:06:03.165Z,12.03
2018-09-04T10:08:07.555Z,11.65
2018-09-04T10:10:12.661Z,13.20
2018-09-04T10:14:27.214Z,12.53
2018-09-04T10:16:32.299Z,12.30
2018-09-04T10:18:36.901Z,13.65
2018-09-04T10:20:42.178Z,11.55
2018-09-04T10:22:46.470Z,11.45
2018-09-04T10:24:50.507Z,14.13
2018-09-04T10:26:54.552Z,13.43
2018-09-04T10:28:59.829Z,13.60
2018-09-04T10:31:03.740Z,13.13
2018-09-04T10:33:07.701Z,13.68
2018-09-04T10:35:11.852Z,13.53
2018-09-04T10:37:15.752Z,14.37
2018-09-04T10:39:26.824Z,13.85
2018-09-04T10:41:31.025Z,15.18
2018-09-04T10:43:35.518Z,17.33
2018-09-04T10:45:44.564Z,13.40
2018-09-04T10:47:50.029Z,14.70
2018-09-04T10:49:53.953Z,14.20
2018-09-04T10:51:57.986Z,15.90
2018-09-04T10:54:03.529Z,15.20
2018-09-04T10:56:07.545Z,13.40
2018-09-04T10:58:11.856Z,13.58
2018-09-04T11:00:17.318Z,14.80
2018-09-04T11:02:22.090Z,14.58
2018-09-04T11:04:27.476Z,16.75
2018-09-04T11:06:31.510Z,13.75
2018-09-04T11:08:42.293Z,15.15
2018-09-04T11:10:48.419Z,15.65
2018-09-04T11:12:53.462Z,14.90
2018-09-04T11:14:58.166Z,14.95
2018-09-04T11:17:02.988Z,14.90
2018-09-04T11:19:06.930Z,14.55
2018-09-04T11:21:11.809Z,15.48
2018-09-04T11:23:18.632Z,16.37
2018-09-04T11:25:22.540Z,15.28
2018-09-04T11:27:26.448Z,14.83
2018-09-04T11:29:30.713Z,13.62
2018-09-04T11:31:35.372Z,14.58
2018-09-04T11:33:39.468Z,15.60
2018-09-04T11:35:44.681Z,13.60
2018-09-04T11:37:48.587Z,13.83
2018-09-04T11:39:53.628Z,16.85
2018-09-04T11:41:57.774Z,14.07
2018-09-04T11:44:02.530Z,14.70
2018-09-04T11:46:07.642Z,16.30
2018-09-04T11:48:17.083Z,14.60
2018-09-04T11:50:21.018Z,15.75
2018-09-04T11:52:24.988Z,14.28
2018-09-04T11:54:29.322Z,15.45
2018-09-04T11:56:38.432Z,14.55
2018-09-04T11:58:43.000Z,15.68
2018-09-04T12:00:48.410Z,16.60
2018-09-04T12:02:52.410Z,13.98
2018-09-04T12:04:56.504Z,14.65
2018-09-04T12:07:00.967Z,13.68
2018-09-04T12:09:06.160Z,14.85
2018-09-04T12:11:10.033Z,15.08
2018-09-04T12:13:18.181Z,15.43
2018-09-04T12:15:27.047Z,16.42
2018-09-04T12:17:30.998Z,14.78
2018-09-04T12:19:46.276Z,15.80
2018-09-04T12:21:50.321Z,15.43
2018-09-04T12:23:55.848Z,15.65
2018-09-04T12:26:00.889Z,17.25
2018-09-04T12:28:04.794Z,15.15
2018-09-04T12:30:09.146Z,15.58
2018-09-04T12:32:13.645Z,16.48
2018-09-04T12:34:18.995Z,15.63
2018-09-04T12:36:23.299Z,16.73
2018-09-04T12:38:35.449Z,16.20
2018-09-04T12:40:40.796Z,17.00
2018-09-04T12:42:45.533Z,16.62
2018-09-04T12:44:50.414Z,15.63
2018-09-04T12:46:58.888Z,16.48
2018-09-04T12:49:04.273Z,19.12
2018-09-04T12:51:09.022Z,16.87
2018-09-04T12:53:12.936Z,15.53
2018-09-04T12:55:18.300Z,15.32
2018-09-04T12:57:22.815Z,16.30
2018-09-04T12:59:31.176Z,16.48
2018-09-04T13:01:35.508Z,16.93
2018-09-04T13:03:42.565Z,17.35
2018-09-04T13:05:58.713Z,17.62
2018-09-04T13:08:02.630Z,16.82
2018-09-04T13:10:07.556Z,16.27
2018-09-04T13:12:12.025Z,15.90
2018-09-04T13:14:17.459Z,17.67
2018-09-04T13:16:29.263Z,16.87
2018-09-04T13:18:35.246Z,19.05
2018-09-04T13:20:39.587Z,18.45
2018-09-04T13:22:43.499Z,16.97
2018-09-04T13:24:49.370Z,16.25
2018-09-04T13:26:54.618Z,15.85
2018-09-04T13:28:59.302Z,21.75
2018-09-04T13:31:03.356Z,17.25
2018-09-04T13:33:08.136Z,16.48
2018-09-04T13:35:12.036Z,15.55
2018-09-04T13:37:17.381Z,16.27
2018-09-04T13:39:41.097Z,15.48
2018-09-04T13:41:44.999Z,16.02
2018-09-04T13:43:50.257Z,15.80
2018-09-04T13:46:08.370Z,16.97
2018-09-04T13:48:13.895Z,16.82
2018-09-04T13:50:19.936Z,16.67
2018-09-04T13:52:27.236Z,15.90
2018-09-04T13:54:32.017Z,15.68
2018-09-04T13:56:37.836Z,15.88
2018-09-04T13:58:43.306Z,14.30
2018-09-04T14:00:47.366Z,15.50
2018-09-04T14:02:52.970Z,14.07
2018-09-04T14:04:57.369Z,16.57
2018-09-04T14:07:03.013Z,15.93
2018-09-04T14:09:10.895Z,14.53
2018-09-04T14:11:17.199Z,18.15
2018-09-04T14:13:23.361Z,17.55
2018-09-04T14:15:34.716Z,15.70
2018-09-04T14:17:39.492Z,15.30
2018-09-04T14:19:44.031Z,15.32
2018-09-04T14:21:49.769Z,14.23
2018-09-04T14:23:53.657Z,15.93
2018-09-04T14:25:58.522Z,17.25
2018-09-04T14:28:03.347Z,15.55
2018-09-04T14:30:18.943Z,15.08
2018-09-04T14:32:16.994Z,15.38
2018-09-04T14:34:21.857Z,14.75
2018-09-04T14:36:28.624Z,15.03
2018-09-04T14:38:32.465Z,15.00
2018-09-04T14:40:36.384Z,15.43
2018-09-04T14:42:40.795Z,29.80
2018-09-04T14:44:44.742Z,15.55
2018-09-04T14:46:49.320Z,14.93
2018-09-04T14:48:54.385Z,15.35
2018-09-04T14:50:59.041Z,13.68
2018-09-04T14:53:05.037Z,14.40
2018-09-04T14:55:11.680Z,14.98
2018-09-04T14:57:17.202Z,16.93
2018-09-04T14:59:21.540Z,15.05
2018-09-04T15:01:27.072Z,14.45
2018-09-04T15:03:31.012Z,15.55
2018-09-04T15:05:35.565Z,14.73
2018-09-04T15:07:41.869Z,14.18
2018-09-04T15:09:45.824Z,15.05
2018-09-04T15:11:49.689Z,14.30
2018-09-04T15:13:53.665Z,15.23
2018-09-04T15:16:00.203Z,14.45
2018-09-04T15:18:04.774Z,14.98
2018-09-04T15:20:09.077Z,14.60
2018-09-04T15:22:12.990Z,15.25
2018-09-04T15:24:17.186Z,14.95
2018-09-04T15:26:21.472Z,15.40
2018-09-04T15:28:32.400Z,16.60
2018-09-04T15:30:36.553Z,15.70
2018-09-04T15:32:40.738Z,14.10
2018-09-04T15:34:46.846Z,15.75
2018-09-04T15:36:50.842Z,15.03
2018-09-04T15:38:55.343Z,14.83
2018-09-04T15:40:59.284Z,15.30
2018-09-04T15:43:03.290Z,15.25
2018-09-04T15:45:09.109Z,15.93
2018-09-04T15:47:15.201Z,17.80
2018-09-04T15:49:24.333Z,14.85
2018-09-04T15:51:29.628Z,16.23
2018-09-04T15:53:34.488Z,14.68
2018-09-04T15:55:38.505Z,15.85
2018-09-04T15:57:44.608Z,15.63
2018-09-04T15:59:48.525Z,14.78
2018-09-04T16:01:53.361Z,15.65
2018-09-04T16:03:58.319Z,15.10
2018-09-04T16:06:02.282Z,15.78
2018-09-04T16:08:06.218Z,15.58
2018-09-04T16:10:13.717Z,15.38
2018-09-04T16:12:17.726Z,15.53
2018-09-04T16:14:25.289Z,15.70
2018-09-04T16:16:29.911Z,16.07
2018-09-04T16:18:36.096Z,15.98
2018-09-04T16:20:42.855Z,15.72
2018-09-04T16:22:51.896Z,16.87
2018-09-04T16:24:56.568Z,15.90
2018-09-04T16:27:03.296Z,15.25
2018-09-04T16:29:11.706Z,14.40
2018-09-04T16:31:15.648Z,15.37
2018-09-04T16:33:19.621Z,19.48
2018-09-04T16:35:24.689Z,15.68
2018-09-04T16:37:28.811Z,15.60
2018-09-04T16:39:32.781Z,15.15
2018-09-04T16:41:37.281Z,14.05
2018-09-04T16:43:42.365Z,16.10
2018-09-04T16:45:57.222Z,15.30
2018-09-04T16:48:09.269Z,15.43
2018-09-04T16:50:21.576Z,14.33
2018-09-04T16:52:36.790Z,14.73
2018-09-04T16:54:53.807Z,15.93
2018-09-04T16:57:05.636Z,14.78
2018-09-04T16:59:13.232Z,15.03
2018-09-04T17:01:36.525Z,15.00
2018-09-04T17:03:46.451Z,16.10
2018-09-04T17:06:01.337Z,15.23
2018-09-04T17:08:19.486Z,18.83
2018-09-04T17:10:35.659Z,13.70
2018-09-04T17:12:55.589Z,14.63
2018-09-04T17:15:29.551Z,11.13
2018-09-04T17:17:40.291Z,11.73
2018-09-04T17:19:46.747Z,9.70
2018-09-04T17:21:55.499Z,10.70
2018-09-04T17:24:19.356Z,10.17
2018-09-04T17:26:37.793Z,10.23
2018-09-04T17:28:59.632Z,11.27
2018-09-04T17:31:20.043Z,9.23
2018-09-04T17:33:39.302Z,9.20
2018-09-04T17:35:56.347Z,11.00
2018-09-04T17:38:09.245Z,9.50
2018-09-04T17:40:26.935Z,8.73
2018-09-04T17:42:46.819Z,9.60
2018-09-04T17:44:54.223Z,9.93
2018-09-04T17:47:03.573Z,8.53
2018-09-04T17:49:18.503Z,10.20
2018-09-04T17:51:26.147Z,8.67
2018-09-04T17:53:39.464Z,9.17
2018-09-04T17:55:59.311Z,10.07
2018-09-04T17:58:11.437Z,9.53
2018-09-04T18:00:33.754Z,9.40
2018-09-04T18:02:41.679Z,9.60
2018-09-04T18:04:48.620Z,11.10
2018-09-04T18:06:55.559Z,10.43
2018-09-04T18:09:03.842Z,10.83
2018-09-04T18:11:14.096Z,10.00
2018-09-04T18:13:21.256Z,10.57
2018-09-04T18:17:46.172Z,12.30
2018-09-04T18:19:53.434Z,11.03
2018-09-04T18:22:01.583Z,10.37
2018-09-04T18:24:16.606Z,12.23
2018-09-04T18:26:31.334Z,15.13
2018-09-04T18:28:45.740Z,13.23
2018-09-04T18:33:46.062Z,13.57
2018-09-04T18:36:32.233Z,14.63
2018-09-04T18:41:25.033Z,18.37
2018-09-04T18:43:43.369Z,15.93
2018-09-04T18:46:03.415Z,13.97
2018-09-04T18:48:13.412Z,14.00
2018-09-04T18:50:30.199Z,14.60
2018-09-04T18:52:35.528Z,16.63
2018-09-04T18:54:47.515Z,15.03
2018-09-04T18:56:57.403Z,14.27
2018-09-04T18:59:03.776Z,15.33
2018-09-04T19:01:17.820Z,14.77
2018-09-04T19:03:24.509Z,15.50
2018-09-04T19:05:36.811Z,15.97
2018-09-04T19:07:46.697Z,15.03
2018-09-04T19:09:53.524Z,14.77
2018-09-04T19:12:02.911Z,14.60
2018-09-04T19:14:12.527Z,14.30
2018-09-04T19:16:23.712Z,14.03
2018-09-04T19:18:28.469Z,13.00
2018-09-04T19:20:39.156Z,13.03
2018-09-04T19:22:49.230Z,13.13
2018-09-04T19:25:01.225Z,13.33
2018-09-04T19:27:16.177Z,12.83
2018-09-04T19:29:23.949Z,13.00
2018-09-04T19:31:31.256Z,12.37
2018-09-04T19:33:36.078Z,15.20
2018-09-04T19:35:47.101Z,14.47
2018-09-04T19:37:54.529Z,12.40
2018-09-04T19:40:01.521Z,12.73
2018-09-04T19:42:12.373Z,12.00
2018-09-04T19:44:17.518Z,12.77
2018-09-04T19:46:24.176Z,14.27
2018-09-04T19:48:35.340Z,13.10
2018-09-04T19:50:43.386Z,13.23
2018-09-04T19:52:52.783Z,15.43
2018-09-04T19:55:04.550Z,14.10
2018-09-04T19:57:14.100Z,11.97
2018-09-04T19:59:21.503Z,14.30
2018-09-04T20:01:31.484Z,13.33
2018-09-04T20:03:37.215Z,13.53
2018-09-04T20:05:45.700Z,13.07
2018-09-04T20:07:54.439Z,14.17
2018-09-04T20:09:58.482Z,13.60
2018-09-04T20:12:05.174Z,15.23
2018-09-04T20:14:10.772Z,15.90
2018-09-04T20:16:21.897Z,14.67
2018-09-04T20:18:35.014Z,13.77
2018-09-04T20:20:40.065Z,15.17
2018-09-04T20:22:47.130Z,14.50
2018-09-04T20:24:51.978Z,13.43
2018-09-04T20:26:55.950Z,14.97
2018-09-04T20:29:00.788Z,13.70
2018-09-04T20:31:07.243Z,13.97
2018-09-04T20:33:11.177Z,14.50
2018-09-04T20:35:15.355Z,14.23
2018-09-04T20:37:20.676Z,16.50
2018-09-04T20:39:24.652Z,12.87
2018-09-04T20:41:28.649Z,14.60
2018-09-04T20:43:34.862Z,15.57
2018-09-04T20:45:39.670Z,18.97
2018-09-04T20:47:44.572Z,15.23
2018-09-04T20:49:50.943Z,16.57
2018-09-04T20:51:55.710Z,16.63
2018-09-04T20:54:00.307Z,15.70
2018-09-04T20:56:04.252Z,14.97
2018-09-04T20:58:20.216Z,13.77
2018-09-04T21:00:39.205Z,14.13
2018-09-04T21:02:54.361Z,19.50
2018-09-04T21:05:10.353Z,15.93
2018-09-04T21:07:21.911Z,18.63
2018-09-04T21:09:41.820Z,18.47
2018-09-04T21:11:45.761Z,18.17
2018-09-04T21:13:51.470Z,16.37
2018-09-04T21:15:56.375Z,17.87
2018-09-04T21:18:00.542Z,18.27
2018-09-04T21:20:05.892Z,19.10
2018-09-04T21:22:13.409Z,19.40
2018-09-04T21:24:19.585Z,20.43
2018-09-04T21:26:23.541Z,19.40
2018-09-04T21:28:29.285Z,20.50
2018-09-04T21:30:33.251Z,21.40
2018-09-04T21:32:37.150Z,19.80
2018-09-04T21:34:41.489Z,21.37
2018-09-04T21:36:47.742Z,21.60
2018-09-04T21:38:53.498Z,20.37
2018-09-04T21:40:59.255Z,21.07
2018-09-04T21:43:07.489Z,20.77
2018-09-04T21:45:18.036Z,22.00
2018-09-04T21:47:21.937Z,18.87
2018-09-04T21:49:28.966Z,21.73
2018-09-04T21:51:36.281Z,21.70
2018-09-04T21:53:42.329Z,20.43
2018-09-04T21:55:47.773Z,20.97
2018-09-04T21:57:53.634Z,19.43
2018-09-04T21:59:58.364Z,21.70
2018-09-04T22:02:14.790Z,20.17
2018-09-04T22:04:25.673Z,19.53
2018-09-04T22:06:31.979Z,21.50
2018-09-04T22:08:40.729Z,20.77
2018-09-04T22:10:51.777Z,21.57
2018-09-04T22:12:59.415Z,19.97
2018-09-04T22:15:28.262Z,21.30
2018-09-04T22:17:35.799Z,22.20
2018-09-04T22:19:41.637Z,21.93
2018-09-04T22:21:48.713Z,20.33
2018-09-04T22:24:01.428Z,22.10
2018-09-04T22:26:08.991Z,20.63
2018-09-04T22:28:16.243Z,22.70
2018-09-04T22:30:30.545Z,22.37
2018-09-04T22:32:36.511Z,22.33
2018-09-04T22:34:44.501Z,21.37
2018-09-04T22:36:52.446Z,21.67
2018-09-04T22:38:56.997Z,20.97
2018-09-04T22:41:02.524Z,24.13
2018-09-04T22:43:07.479Z,22.70
2018-09-04T22:45:13.800Z,20.67
2018-09-04T22:47:19.944Z,21.70
2018-09-04T22:49:24.081Z,23.27
2018-09-04T22:51:35.981Z,22.73
2018-09-04T22:53:40.285Z,25.43
2018-09-04T22:55:45.558Z,24.83
2018-09-04T22:57:51.548Z,21.57
2018-09-04T22:59:59.418Z,24.53
2018-09-04T23:02:05.513Z,24.13
2018-09-04T23:04:12.192Z,22.47
2018-09-04T23:06:16.984Z,22.57
2018-09-04T23:08:23.301Z,21.10
2018-09-04T23:10:27.886Z,20.70
2018-09-04T23:12:32.430Z,21.27
2018-09-04T23:14:36.912Z,19.13
2018-09-04T23:16:42.039Z,19.87
2018-09-04T23:18:47.821Z,20.00
2018-09-04T23:20:52.533Z,21.17
2018-09-04T23:22:57.916Z,20.77
2018-09-04T23:25:04.075Z,22.50
2018-09-04T23:27:08.666Z,20.87
2018-09-04T23:29:13.406Z,21.37
2018-09-04T23:31:21.281Z,23.90
2018-09-04T23:33:27.741Z,21.20
2018-09-04T23:35:33.716Z,21.00
2018-09-04T23:37:38.307Z,21.00
2018-09-04T23:39:42.207Z,21.37
2018-09-04T23:41:46.235Z,22.37
2018-09-04T23:43:51.105Z,23.20
2018-09-04T23:45:55.054Z,22.27
2018-09-04T23:47:59.795Z,22.27
2018-09-04T23:50:03.852Z,25.87
2018-09-04T23:52:08.384Z,24.47
2018-09-04T23:54:12.271Z,25.60
2018-09-04T23:56:16.858Z,24.13
2018-09-04T23:58:22.066Z,24.03
